Time;durP1;ratioP1;P1;durP2;ratioP2;P2;SDS_P1;SDS_P2;PMS_P1;PMS_P2;Temp;Humidity;BMP_temperature;BMP_pressure;BME280_temperature;BME280_humidity;BME280_pressure;Samples;Min_cycle;Max_cycle;Signal;HPM_P1;HPM_P2
2022/06/19 00:02:28;;;;;;;18.88;5.15;;;;;;;26.61;45.22;99888.19;5023216;28;20205;-63
2022/06/19 00:04:56;;;;;;;23.08;5.65;;;;;;;26.64;44.99;99875.97;5022292;28;20579;-66
2022/06/19 00:07:26;;;;;;;22.35;6.00;;;;;;;26.70;44.68;99869.47;5021927;28;20237;-63
2022/06/19 00:09:53;;;;;;;27.60;7.05;;;;;;;26.79;44.42;99865.13;5024641;28;20575;-63
2022/06/19 00:12:21;;;;;;;20.88;6.13;;;;;;;26.77;44.41;99859.13;5023498;28;20578;-64
2022/06/19 00:14:49;;;;;;;27.25;5.82;;;;;;;26.81;44.23;99861.06;5025901;28;20213;-64
2022/06/19 00:17:17;;;;;;;23.08;5.32;;;;;;;26.82;44.01;99862.69;5022084;28;20312;-63
2022/06/19 00:19:45;;;;;;;26.00;5.95;;;;;;;26.81;43.92;99843.91;5022505;28;20651;-63
2022/06/19 00:22:13;;;;;;;16.58;4.93;;;;;;;26.83;43.86;99833.56;5022262;28;20296;-63
2022/06/19 00:24:43;;;;;;;23.13;5.13;;;;;;;26.88;43.52;99826.25;5025650;28;20305;-63
2022/06/19 00:27:11;;;;;;;16.50;5.10;;;;;;;26.95;43.45;99828.72;5020287;28;20212;-63
2022/06/19 00:29:38;;;;;;;24.58;5.68;;;;;;;26.99;43.23;99829.81;5021289;28;20239;-63
2022/06/19 00:32:07;;;;;;;20.42;4.53;;;;;;;27.04;43.27;99831.72;5003817;28;20296;-63
2022/06/19 00:34:36;;;;;;;21.25;4.80;;;;;;;27.06;43.15;99822.22;5020582;28;20840;-63
2022/06/19 00:37:05;;;;;;;23.23;4.90;;;;;;;27.07;43.20;99823.84;5023897;28;20247;-64
2022/06/19 00:39:39;;;;;;;16.30;4.50;;;;;;;27.07;43.28;99821.13;5022361;28;20219;-63
2022/06/19 00:42:14;;;;;;;23.10;5.93;;;;;;;27.09;42.83;99820.84;5028448;28;20771;-63
2022/06/19 00:44:42;;;;;;;23.23;5.53;;;;;;;27.11;43.16;99830.34;5027472;28;20222;-63
2022/06/19 00:47:18;;;;;;;19.05;5.22;;;;;;;27.17;42.97;99831.19;5023006;28;20212;-65
2022/06/19 00:49:52;;;;;;;25.88;5.38;;;;;;;27.21;42.92;99830.38;5022641;28;20892;-64
2022/06/19 00:52:22;;;;;;;19.58;4.85;;;;;;;27.23;43.03;99825.47;5022403;28;20303;-63
2022/06/19 00:54:54;;;;;;;21.90;5.13;;;;;;;27.21;42.94;99824.91;5020258;28;20256;-64
2022/06/19 00:57:25;;;;;;;19.92;5.18;;;;;;;27.14;43.37;99818.94;5014059;28;20826;-64
2022/06/19 01:00:00;;;;;;;23.38;5.47;;;;;;;27.04;43.62;99815.41;5025081;28;20204;-64
2022/06/19 01:02:28;;;;;;;24.63;6.00;;;;;;;26.89;44.00;99813.47;5017685;28;20197;-63
2022/06/19 01:04:57;;;;;;;21.48;5.35;;;;;;;26.81;44.51;99800.41;5016865;28;20217;-64
2022/06/19 01:07:27;;;;;;;22.52;5.72;;;;;;;26.72;44.65;99799.31;5022983;28;20216;-64
2022/06/19 01:09:55;;;;;;;20.90;5.15;;;;;;;26.64;44.82;99797.13;5028360;28;20224;-64
2022/06/19 01:12:26;;;;;;;18.27;5.95;;;;;;;26.53;45.01;99788.94;5020300;28;20205;-64
2022/06/19 01:15:00;;;;;;;22.67;5.60;;;;;;;26.45;45.24;99789.47;5021510;28;20296;-64
2022/06/19 01:17:29;;;;;;;16.70;4.50;;;;;;;26.39;45.32;99787.81;5024794;28;20683;-64
2022/06/19 01:19:57;;;;;;;18.60;5.50;;;;;;;26.37;45.49;99784.56;5023170;28;20719;-64
2022/06/19 01:22:34;;;;;;;24.20;5.55;;;;;;;26.38;45.26;99791.63;5022991;28;20215;-64
2022/06/19 01:25:06;;;;;;;24.40;5.38;;;;;;;26.43;45.53;99794.34;5025132;28;20231;-64
2022/06/19 01:30:27;;;;;;;20.83;5.70;;;;;;;26.49;45.34;99785.13;5024573;28;20254;-64
2022/06/19 01:32:57;;;;;;;25.33;6.05;;;;;;;26.52;45.36;99789.19;5024780;28;20208;-65
2022/06/19 01:35:28;;;;;;;19.30;5.82;;;;;;;26.44;45.45;99785.13;5014939;28;20213;-64
2022/06/19 01:38:08;;;;;;;23.35;6.72;;;;;;;26.35;45.70;99784.00;5023878;28;20303;-64
2022/06/19 01:40:40;;;;;;;20.17;5.40;;;;;;;26.31;45.94;99793.75;5021377;28;20588;-63
2022/06/19 01:43:09;;;;;;;27.75;6.15;;;;;;;26.25;46.04;99797.53;5020326;28;20311;-66
2022/06/19 01:45:40;;;;;;;16.23;5.13;;;;;;;26.23;46.31;99794.25;5023389;28;20208;-63
2022/06/19 01:48:09;;;;;;;25.35;5.90;;;;;;;26.12;46.52;99777.09;5015960;28;20217;-63
2022/06/19 01:50:37;;;;;;;21.50;5.28;;;;;;;26.02;46.85;99793.38;5019684;28;20205;-63
2022/06/19 01:53:08;;;;;;;17.65;5.68;;;;;;;25.88;47.44;99781.34;5020561;28;20215;-63
2022/06/19 01:55:39;;;;;;;22.33;5.40;;;;;;;25.77;47.56;99780.47;5021688;28;20240;-63
2022/06/19 01:58:07;;;;;;;21.95;5.57;;;;;;;25.74;47.82;99786.47;5020083;28;20233;-63
2022/06/19 02:00:36;;;;;;;18.45;5.43;;;;;;;25.78;47.67;99784.84;5023381;28;20212;-63
2022/06/19 02:03:14;;;;;;;25.20;6.20;;;;;;;25.81;47.71;99792.47;5020522;28;20724;-63
2022/06/19 02:05:43;;;;;;;26.70;5.90;;;;;;;25.81;47.70;99784.31;5010553;28;20212;-64
2022/06/19 02:08:13;;;;;;;23.70;5.15;;;;;;;25.79;47.70;99788.38;5022167;28;20205;-62
2022/06/19 02:10:45;;;;;;;17.80;5.30;;;;;;;25.77;47.87;99779.69;5022337;28;20236;-63
2022/06/19 02:13:14;;;;;;;23.73;5.43;;;;;;;25.74;47.80;99775.59;5021480;28;20205;-62
2022/06/19 02:15:43;;;;;;;20.92;6.30;;;;;;;25.65;48.03;99776.38;5019285;28;20209;-62
2022/06/19 02:18:17;;;;;;;26.83;5.70;;;;;;;25.63;48.03;99768.47;5021793;28;20252;-62
2022/06/19 02:20:45;;;;;;;20.20;5.18;;;;;;;25.59;48.43;99772.81;5021420;28;20212;-62
2022/06/19 02:23:13;;;;;;;18.65;5.97;;;;;;;25.59;48.18;99766.53;5009107;28;20213;-62
2022/06/19 02:25:44;;;;;;;28.65;5.78;;;;;;;25.49;48.45;99761.88;5023246;28;21010;-62
2022/06/19 02:28:14;;;;;;;18.75;5.25;;;;;;;25.40;48.70;99760.72;5023917;28;20646;-61
2022/06/19 02:30:42;;;;;;;15.45;5.20;;;;;;;25.36;48.90;99763.13;5023071;28;20235;-63
2022/06/19 02:33:16;;;;;;;25.75;5.22;;;;;;;25.31;48.95;99756.88;5014417;28;20610;-63
2022/06/19 02:35:43;;;;;;;19.08;5.18;;;;;;;25.34;48.67;99769.88;5018687;28;20324;-63
2022/06/19 02:38:17;;;;;;;18.45;5.25;;;;;;;25.37;48.65;99763.94;5023234;28;20689;-63
2022/06/19 02:40:56;;;;;;;22.63;6.43;;;;;;;25.40;48.30;99764.25;5021345;28;20648;-63
2022/06/19 02:43:27;;;;;;;19.42;4.93;;;;;;;25.43;48.00;99762.91;5020772;28;20292;-63
2022/06/19 02:45:55;;;;;;;15.70;5.50;;;;;;;25.44;47.92;99761.81;5020335;28;20312;-63
2022/06/19 02:48:26;;;;;;;22.65;5.50;;;;;;;25.35;48.57;99760.69;5025472;28;20674;-63
2022/06/19 02:50:54;;;;;;;26.23;5.88;;;;;;;25.28;48.71;99754.66;5019135;28;20197;-63
2022/06/19 02:53:22;;;;;;;21.35;5.47;;;;;;;25.24;48.29;99767.13;5013645;28;20228;-62
2022/06/19 02:55:53;;;;;;;31.45;6.65;;;;;;;25.17;48.47;99763.81;5020955;28;20240;-63
2022/06/19 02:58:21;;;;;;;16.63;4.55;;;;;;;25.14;48.54;99748.88;5022027;28;20229;-63
2022/06/19 03:00:51;;;;;;;15.60;5.57;;;;;;;25.13;48.62;99749.16;5020542;28;20461;-63
2022/06/19 03:03:25;;;;;;;17.88;5.30;;;;;;;25.05;48.72;99740.44;5023778;28;20693;-63
2022/06/19 03:05:53;;;;;;;18.08;5.13;;;;;;;25.13;48.77;99746.44;5020418;28;21539;-63
2022/06/19 03:08:21;;;;;;;22.70;5.95;;;;;;;25.16;48.85;99735.03;5020906;28;20216;-63
2022/06/19 03:10:48;;;;;;;15.75;5.75;;;;;;;25.14;48.49;99732.63;5022078;28;20262;-63
2022/06/19 03:13:20;;;;;;;18.63;5.70;;;;;;;25.17;48.72;99736.69;5021282;28;20297;-63
2022/06/19 03:15:48;;;;;;;20.88;5.53;;;;;;;25.14;48.86;99742.66;5023960;28;20217;-63
2022/06/19 03:18:16;;;;;;;22.73;6.38;;;;;;;25.16;48.48;99745.88;5023472;28;20674;-64
2022/06/19 03:20:43;;;;;;;18.20;5.47;;;;;;;25.19;48.79;99729.09;5018521;28;20205;-63
2022/06/19 03:23:11;;;;;;;18.17;4.82;;;;;;;25.14;48.67;99726.38;5015885;28;20204;-63
2022/06/19 03:25:39;;;;;;;16.55;5.07;;;;;;;25.07;48.84;99715.72;5018135;28;20241;-63
2022/06/19 03:28:06;;;;;;;15.55;4.78;;;;;;;25.02;48.78;99726.56;5020943;28;20236;-63
2022/06/19 03:30:35;;;;;;;18.75;5.43;;;;;;;24.95;48.81;99724.06;5021906;28;20240;-63
2022/06/19 03:33:03;;;;;;;24.38;5.47;;;;;;;24.87;49.29;99721.81;5019698;28;20255;-63
2022/06/19 03:35:31;;;;;;;15.43;5.55;;;;;;;24.85;49.32;99721.25;5022579;28;20951;-63
2022/06/19 03:37:59;;;;;;;29.38;6.28;;;;;;;24.85;49.20;99723.13;5025353;28;20298;-63
2022/06/19 03:40:29;;;;;;;16.77;5.45;;;;;;;24.83;49.19;99728.81;5017231;28;20209;-63
2022/06/19 03:42:57;;;;;;;17.23;4.75;;;;;;;24.82;49.37;99739.91;5028109;28;21108;-63
2022/06/19 03:45:25;;;;;;;19.90;5.60;;;;;;;24.89;49.04;99735.91;5022720;28;21983;-63
2022/06/19 03:47:54;;;;;;;27.38;6.43;;;;;;;24.99;49.03;99741.44;5025107;28;20228;-63
2022/06/19 03:50:22;;;;;;;18.02;4.88;;;;;;;24.97;48.90;99745.50;5021109;28;20224;-63
2022/06/19 03:52:50;;;;;;;26.02;6.53;;;;;;;24.90;48.93;99740.25;5020363;28;20222;-63
2022/06/19 03:55:18;;;;;;;22.08;4.65;;;;;;;24.92;49.04;99734.59;5020832;28;20583;-63
2022/06/19 03:57:46;;;;;;;16.77;5.13;;;;;;;24.94;48.81;99727.84;5023899;28;20338;-63
2022/06/19 04:00:16;;;;;;;20.05;5.78;;;;;;;24.95;48.91;99724.06;5024353;28;20244;-63
2022/06/19 04:02:44;;;;;;;17.80;6.05;;;;;;;24.90;49.14;99740.25;5024239;28;20301;-63
2022/06/19 04:05:14;;;;;;;22.60;5.22;;;;;;;24.85;48.96;99729.38;5027431;28;20637;-63
2022/06/19 04:07:46;;;;;;;21.40;5.95;;;;;;;24.78;49.46;99727.97;5021791;28;20205;-63
2022/06/19 04:10:15;;;;;;;23.90;5.07;;;;;;;24.75;49.36;99746.38;5021060;28;20225;-63
2022/06/19 04:12:46;;;;;;;20.83;5.57;;;;;;;24.76;49.36;99733.66;5025737;28;20216;-63
2022/06/19 04:15:14;;;;;;;21.42;5.25;;;;;;;24.79;49.42;99735.03;5024204;28;20300;-64
2022/06/19 04:17:42;;;;;;;21.83;4.70;;;;;;;24.74;49.82;99727.66;5025048;28;20235;-64
2022/06/19 04:20:11;;;;;;;22.58;4.93;;;;;;;24.71;49.98;99731.72;5025485;28;20247;-64
2022/06/19 04:22:41;;;;;;;18.42;4.82;;;;;;;24.69;49.81;99735.75;5021172;28;20228;-64
2022/06/19 04:25:13;;;;;;;25.48;5.53;;;;;;;24.73;50.13;99742.28;5024212;28;20207;-64
2022/06/19 04:27:42;;;;;;;23.15;5.72;;;;;;;24.71;50.14;99739.03;5024655;28;20213;-65
2022/06/19 04:30:11;;;;;;;19.13;5.68;;;;;;;24.70;50.39;99740.94;5023423;28;20243;-64
2022/06/19 04:32:38;;;;;;;21.08;5.80;;;;;;;24.69;50.25;99742.00;5011859;28;20913;-64
2022/06/19 04:35:10;;;;;;;15.10;4.65;;;;;;;24.69;50.50;99728.44;5014830;28;20578;-62
2022/06/19 04:37:41;;;;;;;14.35;4.68;;;;;;;24.69;50.70;99733.03;5026818;28;20213;-62
2022/06/19 04:40:13;;;;;;;33.35;5.18;;;;;;;24.71;50.80;99733.63;5022909;28;20235;-58
2022/06/19 04:42:41;;;;;;;25.67;5.05;;;;;;;24.70;50.91;99732.78;5017349;28;20605;-60
2022/06/19 04:45:09;;;;;;;21.73;5.10;;;;;;;24.72;50.94;99729.81;5024554;28;20205;-60
2022/06/19 04:47:37;;;;;;;18.15;5.35;;;;;;;24.76;50.81;99725.50;5024520;28;20696;-61
2022/06/19 04:50:06;;;;;;;16.58;5.00;;;;;;;24.80;50.69;99723.94;5028907;28;20201;-60
2022/06/19 04:52:34;;;;;;;20.45;5.38;;;;;;;24.82;50.83;99729.88;5024323;28;20303;-62
2022/06/19 04:55:01;;;;;;;18.20;6.03;;;;;;;24.90;50.59;99734.00;5022764;28;20945;-61
2022/06/19 04:57:31;;;;;;;21.75;4.70;;;;;;;24.95;50.45;99724.06;5023156;28;20304;-62
2022/06/19 05:00:01;;;;;;;19.33;4.55;;;;;;;24.98;50.47;99722.75;5027151;28;20761;-63
2022/06/19 05:02:29;;;;;;;24.10;5.18;;;;;;;25.04;50.19;99733.34;5018427;28;20332;-61
2022/06/19 05:04:57;;;;;;;20.02;4.45;;;;;;;25.06;50.18;99731.22;5017523;28;20300;-61
2022/06/19 05:07:25;;;;;;;16.83;4.70;;;;;;;25.11;50.21;99738.56;5023440;28;20348;-63
2022/06/19 05:09:52;;;;;;;19.55;4.10;;;;;;;25.18;50.06;99727.47;5023125;28;20624;-62
2022/06/19 05:12:20;;;;;;;15.27;4.00;;;;;;;25.25;49.83;99728.03;5020321;28;20216;-60
2022/06/19 05:14:49;;;;;;;21.45;5.03;;;;;;;25.30;49.62;99719.97;5024340;28;20200;-61
2022/06/19 05:17:17;;;;;;;15.52;5.00;;;;;;;25.34;49.27;99715.63;5022732;28;20201;-61
2022/06/19 05:19:46;;;;;;;20.70;4.82;;;;;;;25.37;49.39;99721.34;5020947;28;20232;-61
2022/06/19 05:22:14;;;;;;;18.95;4.80;;;;;;;25.43;49.06;99717.56;5021240;28;20288;-60
2022/06/19 05:24:41;;;;;;;19.83;4.03;;;;;;;25.50;49.06;99711.94;5021570;28;20725;-61
2022/06/19 05:27:10;;;;;;;15.00;4.70;;;;;;;25.54;49.02;99709.50;5019828;28;20236;-62
2022/06/19 05:29:38;;;;;;;13.10;4.72;;;;;;;25.56;49.02;99713.59;5017565;28;20281;-62
2022/06/19 05:32:09;;;;;;;15.75;4.70;;;;;;;25.64;49.01;99723.16;5019014;28;20219;-61
2022/06/19 05:34:38;;;;;;;26.60;6.05;;;;;;;25.74;48.94;99731.34;5017987;28;20209;-62
2022/06/19 05:37:12;;;;;;;20.25;5.22;;;;;;;25.78;48.93;99730.53;5021967;28;20731;-62
2022/06/19 05:39:40;;;;;;;18.83;4.95;;;;;;;25.83;49.45;99719.69;5021714;28;20329;-61
2022/06/19 05:42:08;;;;;;;22.77;4.97;;;;;;;25.88;49.27;99715.34;5018451;28;20211;-62
2022/06/19 05:44:37;;;;;;;19.98;4.88;;;;;;;25.97;49.15;99714.56;5022362;28;20223;-62
2022/06/19 05:47:05;;;;;;;15.70;4.63;;;;;;;26.05;49.27;99716.78;5023408;28;20267;-60
2022/06/19 05:49:34;;;;;;;14.18;4.15;;;;;;;26.12;48.81;99727.41;5023707;28;20201;-61
2022/06/19 05:52:02;;;;;;;26.17;4.60;;;;;;;26.18;48.78;99732.56;5020481;28;20217;-60
2022/06/19 05:54:30;;;;;;;18.27;5.53;;;;;;;26.27;48.81;99724.75;5019675;28;20295;-61
2022/06/19 05:56:59;;;;;;;14.10;4.93;;;;;;;26.33;49.06;99733.72;5017192;28;20216;-60
2022/06/19 05:59:27;;;;;;;18.55;5.38;;;;;;;26.39;48.96;99738.88;5020151;28;20225;-61
2022/06/19 06:01:55;;;;;;;16.73;5.72;;;;;;;26.41;48.75;99723.13;5017164;28;20244;-61
2022/06/19 06:04:23;;;;;;;31.75;5.47;;;;;;;26.49;48.26;99724.50;5020931;28;20213;-61
2022/06/19 06:06:53;;;;;;;20.90;4.78;;;;;;;26.56;48.04;99723.13;5020475;28;20214;-61
2022/06/19 06:09:21;;;;;;;18.65;5.10;;;;;;;26.62;48.03;99726.69;5020230;28;20590;-60
2022/06/19 06:11:49;;;;;;;16.77;5.00;;;;;;;26.68;48.49;99730.22;5021188;28;20211;-62
2022/06/19 06:14:17;;;;;;;13.73;4.40;;;;;;;26.76;47.62;99733.22;5023529;28;20299;-61
2022/06/19 06:16:44;;;;;;;17.50;4.93;;;;;;;26.82;47.01;99723.16;5023488;28;20244;-60
2022/06/19 06:19:12;;;;;;;19.20;5.95;;;;;;;26.90;46.77;99728.06;5022305;28;20239;-63
2022/06/19 06:21:40;;;;;;;22.67;5.82;;;;;;;26.92;46.62;99731.31;5022591;28;20227;-63
2022/06/19 06:24:10;;;;;;;21.20;5.95;;;;;;;27.03;46.33;99732.94;5028657;28;20204;-63
2022/06/19 06:26:38;;;;;;;29.10;6.60;;;;;;;27.16;45.75;99726.97;5022400;28;20197;-63
2022/06/19 06:29:07;;;;;;;22.60;5.90;;;;;;;27.21;45.50;99728.84;5027606;28;20205;-63
2022/06/19 06:31:35;;;;;;;18.50;5.70;;;;;;;27.30;45.54;99722.56;5025630;28;20255;-63
2022/06/19 06:34:04;;;;;;;22.42;5.40;;;;;;;27.39;45.68;99722.00;5026024;28;20288;-63
2022/06/19 06:36:32;;;;;;;17.63;6.00;;;;;;;27.48;45.58;99726.59;5027341;28;20296;-63
2022/06/19 06:39:00;;;;;;;25.75;6.45;;;;;;;27.60;45.40;99731.78;5029274;28;20312;-63
2022/06/19 06:41:29;;;;;;;17.52;6.07;;;;;;;27.70;45.60;99731.75;5023405;28;20578;-63
2022/06/19 06:43:57;;;;;;;15.77;6.03;;;;;;;27.74;45.54;99727.34;5026971;28;20216;-63
2022/06/19 06:46:27;;;;;;;17.25;6.32;;;;;;;27.84;45.34;99724.59;5026688;28;20213;-64
2022/06/19 06:48:57;;;;;;;19.17;6.40;;;;;;;27.91;45.05;99730.56;5022856;28;20351;-63
2022/06/19 06:51:27;;;;;;;18.80;5.80;;;;;;;27.98;45.09;99722.88;5024519;28;20307;-63
2022/06/19 06:53:56;;;;;;;19.55;6.82;;;;;;;27.98;45.28;99719.34;5022493;28;20963;-63
2022/06/19 06:56:24;;;;;;;19.42;6.47;;;;;;;28.06;45.06;99719.56;5025348;28;20570;-63
2022/06/19 06:58:54;;;;;;;18.65;5.88;;;;;;;28.16;44.59;99724.19;5023855;28;20233;-63
2022/06/19 07:01:29;;;;;;;25.52;7.45;;;;;;;28.23;44.76;99723.88;5026288;28;20215;-63
2022/06/19 07:03:59;;;;;;;19.73;6.20;;;;;;;28.34;44.42;99730.88;5026198;28;20270;-64
2022/06/19 07:06:29;;;;;;;21.00;7.00;;;;;;;28.31;44.65;99739.66;5025706;28;20240;-63
2022/06/19 07:08:57;;;;;;;18.10;6.85;;;;;;;28.32;44.55;99735.81;5024154;28;20281;-64
2022/06/19 07:11:26;;;;;;;16.67;6.85;;;;;;;28.45;43.12;99733.25;5023980;28;20291;-63
2022/06/19 07:13:56;;;;;;;21.83;6.82;;;;;;;28.58;43.56;99731.00;5022835;28;20249;-63
2022/06/19 07:16:25;;;;;;;23.02;6.00;;;;;;;28.66;42.83;99733.94;5026580;28;20320;-64
2022/06/19 07:18:53;;;;;;;26.55;7.68;;;;;;;28.62;42.56;99737.50;5024690;28;20241;-63
2022/06/19 07:21:21;;;;;;;20.80;7.22;;;;;;;28.79;42.41;99733.31;5023749;28;20288;-63
2022/06/19 07:23:49;;;;;;;17.60;6.22;;;;;;;28.91;42.45;99726.66;5021373;28;20306;-63
2022/06/19 07:26:20;;;;;;;17.02;6.40;;;;;;;28.92;41.73;99722.84;5024758;28;20303;-63
2022/06/19 07:28:48;;;;;;;19.00;7.80;;;;;;;28.89;42.05;99726.13;5024706;28;20223;-63
2022/06/19 07:31:27;;;;;;;17.02;6.80;;;;;;;29.06;41.57;99721.06;5021883;28;20228;-63
2022/06/19 07:33:55;;;;;;;17.80;6.95;;;;;;;29.16;41.53;99715.50;5022487;28;20236;-64
2022/06/19 07:36:26;;;;;;;20.17;6.60;;;;;;;29.18;41.40;99721.50;5022327;28;20684;-64
2022/06/19 07:38:54;;;;;;;25.73;6.90;;;;;;;29.16;40.67;99729.97;5023646;28;20501;-63
2022/06/19 07:41:22;;;;;;;17.63;7.00;;;;;;;29.20;41.05;99724.75;5024163;28;20728;-63
2022/06/19 07:43:51;;;;;;;15.55;7.30;;;;;;;29.25;40.61;99723.88;5022795;28;20240;-64
2022/06/19 07:46:23;;;;;;;20.13;7.53;;;;;;;29.25;40.93;99718.41;5025781;28;20259;-63
2022/06/19 07:51:41;;;;;;;13.98;6.43;;;;;;;29.50;39.53;99709.97;5023856;28;20650;-63
2022/06/19 07:54:09;;;;;;;15.77;6.38;;;;;;;29.50;39.72;99710.78;5022384;28;20323;-64
2022/06/19 07:56:36;;;;;;;19.23;6.80;;;;;;;29.52;39.89;99714.03;5022837;28;20209;-64
2022/06/19 07:59:04;;;;;;;15.25;7.10;;;;;;;29.56;40.39;99720.53;5019356;28;20438;-64
2022/06/19 08:01:32;;;;;;;12.18;6.40;;;;;;;29.69;39.20;99708.09;5022449;28;20344;-64
2022/06/19 08:04:21;;;;;;;17.08;6.55;;;;;;;29.70;38.57;99703.47;5018450;28;20213;-63
2022/06/19 08:06:49;;;;;;;12.80;6.30;;;;;;;29.79;38.35;99704.44;5022488;28;20213;-64
2022/06/19 08:09:17;;;;;;;15.20;6.38;;;;;;;29.82;38.56;99703.81;5018851;28;20213;-66
2022/06/19 08:11:45;;;;;;;13.30;6.13;;;;;;;29.91;38.28;99704.78;5022107;28;20297;-66
2022/06/19 08:14:13;;;;;;;16.92;6.45;;;;;;;29.95;38.21;99700.41;5025246;28;20208;-66
2022/06/19 08:16:41;;;;;;;14.38;7.38;;;;;;;30.08;37.74;99707.88;5024242;28;20201;-66
2022/06/19 08:19:09;;;;;;;12.77;5.75;;;;;;;30.10;37.88;99707.56;5024959;28;20205;-66
2022/06/19 08:21:38;;;;;;;18.92;6.70;;;;;;;30.18;37.98;99696.78;5020614;28;20229;-68
2022/06/19 08:24:06;;;;;;;12.73;6.50;;;;;;;30.20;38.17;99691.03;5020320;28;20212;-68
2022/06/19 08:26:35;;;;;;;13.23;5.72;;;;;;;30.41;37.68;99688.81;5026108;28;20740;-64
2022/06/19 08:29:03;;;;;;;12.07;5.85;;;;;;;30.40;38.10;99695.38;5024472;28;20292;-65
2022/06/19 08:31:32;;;;;;;18.83;6.10;;;;;;;30.48;37.64;99708.38;5026958;28;20236;-65
2022/06/19 08:34:00;;;;;;;13.57;5.68;;;;;;;30.55;36.96;99706.09;5018852;28;20653;-68
2022/06/19 08:36:28;;;;;;;17.30;5.57;;;;;;;30.66;37.07;99707.56;5024035;28;20700;-66
2022/06/19 08:38:59;;;;;;;14.48;5.97;;;;;;;30.74;36.94;99706.88;5021348;28;20296;-66
2022/06/19 08:41:51;;;;;;;13.27;6.10;;;;;;;30.85;37.24;99713.00;5024229;28;20220;-65
2022/06/19 08:44:45;;;;;;;13.20;6.30;;;;;;;30.85;37.20;99708.34;5021769;28;20242;-65
2022/06/19 08:47:27;;;;;;;20.05;6.22;;;;;;;30.97;36.92;99716.88;5018539;28;20217;-66
2022/06/19 08:50:08;;;;;;;12.88;5.65;;;;;;;31.03;36.93;99712.16;5018571;28;20253;-66
2022/06/19 08:52:49;;;;;;;14.90;5.72;;;;;;;31.09;36.82;99721.09;5019198;28;20232;-66
2022/06/19 08:55:30;;;;;;;16.70;5.75;;;;;;;31.18;36.33;99708.34;5020710;28;20255;-64
2022/06/19 08:58:10;;;;;;;13.02;5.40;;;;;;;31.29;36.10;99729.75;5026115;28;20335;-65
2022/06/19 09:00:51;;;;;;;14.75;6.28;;;;;;;31.30;36.22;99720.44;5024090;28;20259;-66
2022/06/19 09:05:36;;;;;;;12.93;5.97;;;;;;;31.36;36.35;99719.22;5022339;28;20205;-66
2022/06/19 09:06:28;;;;;;;11.60;6.40;;;;;;;31.43;36.21;99724.28;5021362;28;20575;-66
2022/06/19 09:09:14;;;;;;;13.48;6.38;;;;;;;31.49;36.20;99714.84;5020622;28;20239;-65
2022/06/19 09:12:13;;;;;;;11.20;5.82;;;;;;;31.57;36.42;99708.66;5023100;28;20240;-66
2022/06/19 09:14:52;;;;;;;12.32;6.38;;;;;;;31.60;35.67;99716.25;5018179;28;20205;-65
2022/06/19 09:17:26;;;;;;;8.52;5.93;;;;;;;31.66;35.98;99712.34;5017506;28;20205;-65
2022/06/19 09:20:07;;;;;;;16.08;6.05;;;;;;;31.80;35.59;99717.00;5023958;28;20205;-67
2022/06/19 09:22:55;;;;;;;19.80;7.05;;;;;;;31.84;35.93;99718.00;5018476;28;20225;-67
2022/06/19 09:25:39;;;;;;;13.55;7.07;;;;;;;31.90;36.03;99722.25;5018395;28;20630;-67
2022/06/19 09:28:23;;;;;;;14.25;6.47;;;;;;;31.95;35.76;99716.66;5021046;28;20211;-66
2022/06/19 09:30:55;;;;;;;15.23;6.70;;;;;;;32.03;35.73;99727.72;5022083;28;20370;-67
2022/06/19 09:33:30;;;;;;;31.02;9.90;;;;;;;32.13;35.39;99726.66;5021836;28;20201;-67
2022/06/19 09:36:02;;;;;;;13.98;8.13;;;;;;;32.12;35.29;99722.31;5023242;28;20300;-67
2022/06/19 09:38:37;;;;;;;21.92;9.50;;;;;;;32.18;35.41;99728.53;5024632;28;20291;-67
2022/06/19 09:41:12;;;;;;;14.10;7.72;;;;;;;32.24;34.59;99728.09;5026721;28;20251;-67
2022/06/19 09:43:48;;;;;;;15.32;6.90;;;;;;;32.32;34.84;99741.09;5021313;28;20707;-65
2022/06/19 09:46:22;;;;;;;14.32;6.50;;;;;;;32.41;34.83;99744.72;5019165;28;20255;-67
2022/06/19 09:48:56;;;;;;;14.27;6.32;;;;;;;32.59;34.45;99736.63;5008554;28;20217;-66
2022/06/19 09:51:30;;;;;;;15.57;6.65;;;;;;;32.62;34.83;99744.25;5020334;28;20224;-66
2022/06/19 09:54:04;;;;;;;20.92;6.70;;;;;;;32.62;35.18;99744.25;5025401;28;20331;-67
2022/06/19 09:56:38;;;;;;;12.48;6.47;;;;;;;32.68;34.83;99745.72;5013978;28;20212;-67
2022/06/19 09:59:17;;;;;;;14.13;6.95;;;;;;;32.73;34.90;99745.63;5022864;28;20563;-65
2022/06/19 10:01:53;;;;;;;13.75;6.65;;;;;;;32.76;35.01;99745.00;5021822;28;20279;-65
2022/06/19 10:04:27;;;;;;;15.68;6.72;;;;;;;32.83;34.61;99731.66;5025380;28;20629;-66
2022/06/19 10:06:59;;;;;;;14.38;6.60;;;;;;;32.90;34.71;99729.25;5024947;28;20212;-66
2022/06/19 10:09:31;;;;;;;18.27;7.13;;;;;;;33.02;34.91;99726.75;5017088;28;20292;-65
2022/06/19 10:12:01;;;;;;;18.73;7.55;;;;;;;33.00;34.56;99729.00;5016423;28;20296;-65
2022/06/19 10:14:36;;;;;;;17.65;6.93;;;;;;;33.08;34.66;99735.66;5024212;28;20200;-65
2022/06/19 10:17:13;;;;;;;14.95;6.57;;;;;;;33.08;35.00;99728.25;5022766;28;20231;-65
2022/06/19 10:19:51;;;;;;;14.85;7.38;;;;;;;33.10;34.98;99723.25;5023349;28;20743;-65
2022/06/19 10:22:33;;;;;;;17.27;6.88;;;;;;;33.24;35.13;99726.75;5021195;28;20312;-65
2022/06/19 10:25:22;;;;;;;12.85;6.38;;;;;;;33.38;35.08;99723.09;5024497;28;20208;-64
2022/06/19 10:28:08;;;;;;;15.98;7.40;;;;;;;33.50;33.85;99717.81;5020728;28;20308;-64
2022/06/19 10:30:55;;;;;;;19.17;6.90;;;;;;;33.61;34.41;99721.88;5020090;28;20319;-66
2022/06/19 10:33:36;;;;;;;16.50;7.15;;;;;;;33.57;34.00;99727.22;5021108;28;20675;-64
2022/06/19 10:36:14;;;;;;;15.52;6.43;;;;;;;33.65;33.57;99722.88;5026563;28;20205;-65
2022/06/19 10:39:07;;;;;;;12.23;6.25;;;;;;;33.65;33.78;99722.88;5020398;28;20204;-66
2022/06/19 10:44:38;;;;;;;15.75;7.03;;;;;;;33.77;34.40;99720.34;5023456;28;20205;-64
2022/06/19 10:47:15;;;;;;;17.70;7.60;;;;;;;33.82;34.43;99709.19;5024280;28;20294;-66
2022/06/19 10:49:55;;;;;;;13.68;7.10;;;;;;;33.92;34.21;99717.16;5025796;28;20272;-66
2022/06/19 10:52:28;;;;;;;16.33;7.45;;;;;;;34.03;33.89;99716.84;5023923;28;20252;-66
2022/06/19 10:55:06;;;;;;;19.30;7.70;;;;;;;34.04;33.59;99712.97;5025459;28;20325;-66
2022/06/19 10:57:48;;;;;;;13.38;7.97;;;;;;;34.05;33.16;99714.56;5027410;28;20201;-65
2022/06/19 11:00:16;;;;;;;13.98;6.75;;;;;;;34.10;33.35;99723.47;5023322;28;20404;-65
2022/06/19 11:05:45;;;;;;;27.80;8.18;;;;;;;34.11;33.45;99714.09;5020064;28;20196;-65
2022/06/19 11:08:14;;;;;;;18.42;7.80;;;;;;;34.18;33.44;99714.41;5019042;28;20296;-65
2022/06/19 11:10:45;;;;;;;14.60;6.65;;;;;;;34.34;33.18;99717.53;5021626;28;20214;-64
2022/06/19 11:13:13;;;;;;;14.32;6.97;;;;;;;34.37;33.30;99711.38;5020611;28;20193;-65
2022/06/19 11:15:45;;;;;;;12.93;7.53;;;;;;;34.37;33.19;99705.88;5027815;28;20708;-64
2022/06/19 11:18:17;;;;;;;20.38;7.30;;;;;;;34.44;32.97;99695.19;5023073;28;20211;-65
2022/06/19 11:21:01;;;;;;;13.52;7.75;;;;;;;34.42;33.10;99694.69;5021712;28;20251;-64
2022/06/19 11:23:34;;;;;;;18.10;7.35;;;;;;;34.47;32.96;99704.75;5020087;28;20272;-65
2022/06/19 11:26:08;;;;;;;26.10;7.07;;;;;;;34.62;32.37;99696.78;5018619;28;20209;-64
2022/06/19 11:28:48;;;;;;;20.20;6.93;;;;;;;34.62;33.08;99696.78;5018995;28;20212;-65
2022/06/19 11:31:19;;;;;;;12.95;7.13;;;;;;;34.92;32.53;99694.94;5020436;28;20528;-67
2022/06/19 11:33:52;;;;;;;13.70;7.28;;;;;;;34.82;32.55;99694.53;5021422;28;20217;-66
2022/06/19 11:36:31;;;;;;;14.63;6.72;;;;;;;34.76;32.48;99701.31;5018878;28;20693;-67
2022/06/19 11:39:02;;;;;;;13.35;7.03;;;;;;;34.70;32.63;99701.47;5019432;28;20213;-66
2022/06/19 11:41:34;;;;;;;14.55;7.68;;;;;;;34.71;32.62;99700.34;5015086;28;20252;-65
2022/06/19 11:44:08;;;;;;;15.80;6.97;;;;;;;34.74;32.92;99687.09;5018041;28;20701;-66
2022/06/19 11:46:45;;;;;;;12.10;7.28;;;;;;;34.82;32.51;99681.56;5020347;28;20208;-65
2022/06/19 11:49:25;;;;;;;13.77;7.65;;;;;;;34.84;32.93;99672.94;5023347;28;20212;-68
2022/06/19 11:52:01;;;;;;;17.15;7.00;;;;;;;34.80;32.62;99683.81;5021042;28;20228;-65
2022/06/19 11:54:33;;;;;;;11.43;6.90;;;;;;;34.80;32.90;99674.75;5017262;28;20271;-66
2022/06/19 11:57:02;;;;;;;13.35;6.80;;;;;;;34.87;32.61;99683.31;5024464;28;20747;-68